sensor_id;sensor_type;location;lat;lon;timestamp;temperature;humidity
11532;DHT22;5822;51.000;5.874;2024-02-23T00:00:34;8.60;99.90
11532;DHT22;5822;51.000;5.874;2024-02-23T00:03:00;8.70;99.90
11532;DHT22;5822;51.000;5.874;2024-02-23T00:05:25;8.60;99.90
11532;DHT22;5822;51.000;5.874;2024-02-23T00:07:51;8.60;99.90
11532;DHT22;5822;51.000;5.874;2024-02-23T00:10:17;8.60;99.90
11532;DHT22;5822;51.000;5.874;2024-02-23T00:12:42;8.60;99.90
11532;DHT22;5822;51.000;5.874;2024-02-23T00:15:09;8.70;99.90
11532;DHT22;5822;51.000;5.874;2024-02-23T00:17:35;8.80;99.90
11532;DHT22;5822;51.000;5.874;2024-02-23T00:20:01;8.70;99.90
11532;DHT22;5822;51.000;5.874;2024-02-23T00:22:26;8.70;99.90
11532;DHT22;5822;51.000;5.874;2024-02-23T00:24:52;8.70;99.90
11532;DHT22;5822;51.000;5.874;2024-02-23T00:27:18;8.70;99.90
11532;DHT22;5822;51.000;5.874;2024-02-23T00:29:43;8.60;99.90
11532;DHT22;5822;51.000;5.874;2024-02-23T00:32:09;8.50;99.90
11532;DHT22;5822;51.000;5.874;2024-02-23T00:34:35;8.60;99.90
11532;DHT22;5822;51.000;5.874;2024-02-23T00:37:01;8.60;99.90
11532;DHT22;5822;51.000;5.874;2024-02-23T00:39:27;8.50;99.90
11532;DHT22;5822;51.000;5.874;2024-02-23T00:41:53;8.50;99.90
11532;DHT22;5822;51.000;5.874;2024-02-23T00:44:18;8.50;99.90
11532;DHT22;5822;51.000;5.874;2024-02-23T00:46:44;8.50;99.90
11532;DHT22;5822;51.000;5.874;2024-02-23T00:49:09;8.40;99.90
11532;DHT22;5822;51.000;5.874;2024-02-23T00:51:35;8.50;99.90
11532;DHT22;5822;51.000;5.874;2024-02-23T00:54:01;8.60;99.90
11532;DHT22;5822;51.000;5.874;2024-02-23T00:56:26;8.70;99.90
11532;DHT22;5822;51.000;5.874;2024-02-23T00:58:53;8.70;99.90
11532;DHT22;5822;51.000;5.874;2024-02-23T01:01:18;8.70;99.90
11532;DHT22;5822;51.000;5.874;2024-02-23T01:03:44;8.60;99.90
11532;DHT22;5822;51.000;5.874;2024-02-23T01:06:10;8.60;99.90
11532;DHT22;5822;51.000;5.874;2024-02-23T01:08:35;8.60;99.90
11532;DHT22;5822;51.000;5.874;2024-02-23T01:11:01;8.50;99.90
11532;DHT22;5822;51.000;5.874;2024-02-23T01:13:27;8.60;99.90
11532;DHT22;5822;51.000;5.874;2024-02-23T01:15:53;8.60;99.90
11532;DHT22;5822;51.000;5.874;2024-02-23T01:18:19;8.60;99.90
11532;DHT22;5822;51.000;5.874;2024-02-23T01:20:45;8.50;99.90
11532;DHT22;5822;51.000;5.874;2024-02-23T01:23:11;8.60;99.90
11532;DHT22;5822;51.000;5.874;2024-02-23T01:25:36;8.60;99.90
11532;DHT22;5822;51.000;5.874;2024-02-23T01:28:03;8.60;99.90
11532;DHT22;5822;51.000;5.874;2024-02-23T01:30:28;8.60;99.90
11532;DHT22;5822;51.000;5.874;2024-02-23T01:32:54;8.50;99.90
11532;DHT22;5822;51.000;5.874;2024-02-23T01:35:20;8.50;99.90
11532;DHT22;5822;51.000;5.874;2024-02-23T01:37:45;8.50;99.90
11532;DHT22;5822;51.000;5.874;2024-02-23T01:40:11;8.60;99.90
11532;DHT22;5822;51.000;5.874;2024-02-23T01:42:38;8.60;99.90
11532;DHT22;5822;51.000;5.874;2024-02-23T01:45:04;8.50;99.90
11532;DHT22;5822;51.000;5.874;2024-02-23T01:47:30;8.50;99.90
11532;DHT22;5822;51.000;5.874;2024-02-23T01:49:57;8.50;99.90
11532;DHT22;5822;51.000;5.874;2024-02-23T01:52:24;8.50;99.90
11532;DHT22;5822;51.000;5.874;2024-02-23T01:54:50;8.50;99.90
11532;DHT22;5822;51.000;5.874;2024-02-23T01:57:17;8.50;99.90
11532;DHT22;5822;51.000;5.874;2024-02-23T01:59:43;8.40;99.90
11532;DHT22;5822;51.000;5.874;2024-02-23T02:02:09;8.40;99.90
11532;DHT22;5822;51.000;5.874;2024-02-23T02:04:34;8.40;99.90
11532;DHT22;5822;51.000;5.874;2024-02-23T02:07:01;8.40;99.90
11532;DHT22;5822;51.000;5.874;2024-02-23T02:09:27;8.40;99.90
11532;DHT22;5822;51.000;5.874;2024-02-23T02:11:52;8.50;99.90
11532;DHT22;5822;51.000;5.874;2024-02-23T02:14:18;8.50;99.90
11532;DHT22;5822;51.000;5.874;2024-02-23T02:16:44;8.50;99.90
11532;DHT22;5822;51.000;5.874;2024-02-23T02:19:11;8.40;99.90
11532;DHT22;5822;51.000;5.874;2024-02-23T02:21:37;8.40;99.90
11532;DHT22;5822;51.000;5.874;2024-02-23T02:24:03;8.40;99.90
11532;DHT22;5822;51.000;5.874;2024-02-23T02:26:29;8.40;99.90
11532;DHT22;5822;51.000;5.874;2024-02-23T02:28:55;8.50;99.90
11532;DHT22;5822;51.000;5.874;2024-02-23T02:31:23;8.40;99.90
11532;DHT22;5822;51.000;5.874;2024-02-23T02:33:49;8.50;99.90
11532;DHT22;5822;51.000;5.874;2024-02-23T02:36:15;8.50;99.90
11532;DHT22;5822;51.000;5.874;2024-02-23T02:38:40;8.50;99.90
11532;DHT22;5822;51.000;5.874;2024-02-23T02:41:06;8.60;99.90
11532;DHT22;5822;51.000;5.874;2024-02-23T02:43:32;8.50;99.90
11532;DHT22;5822;51.000;5.874;2024-02-23T02:45:58;8.50;99.90
11532;DHT22;5822;51.000;5.874;2024-02-23T02:48:24;8.50;99.90
11532;DHT22;5822;51.000;5.874;2024-02-23T02:50:50;8.50;99.90
11532;DHT22;5822;51.000;5.874;2024-02-23T02:53:17;8.60;99.90
11532;DHT22;5822;51.000;5.874;2024-02-23T02:55:42;8.50;99.90
11532;DHT22;5822;51.000;5.874;2024-02-23T02:58:09;8.50;99.90
11532;DHT22;5822;51.000;5.874;2024-02-23T03:00:35;8.60;99.90
11532;DHT22;5822;51.000;5.874;2024-02-23T03:03:00;8.60;99.90
11532;DHT22;5822;51.000;5.874;2024-02-23T03:05:26;8.60;99.90
11532;DHT22;5822;51.000;5.874;2024-02-23T03:07:52;8.50;99.90
11532;DHT22;5822;51.000;5.874;2024-02-23T03:10:18;8.60;99.90
11532;DHT22;5822;51.000;5.874;2024-02-23T03:12:43;8.50;99.90
11532;DHT22;5822;51.000;5.874;2024-02-23T03:15:09;8.50;99.90
11532;DHT22;5822;51.000;5.874;2024-02-23T03:17:38;8.50;99.90
11532;DHT22;5822;51.000;5.874;2024-02-23T03:20:05;8.50;99.90
11532;DHT22;5822;51.000;5.874;2024-02-23T03:22:34;8.50;99.90
11532;DHT22;5822;51.000;5.874;2024-02-23T03:24:59;8.60;99.90
11532;DHT22;5822;51.000;5.874;2024-02-23T03:27:28;8.60;99.90
11532;DHT22;5822;51.000;5.874;2024-02-23T03:29:54;8.60;99.90
11532;DHT22;5822;51.000;5.874;2024-02-23T03:32:20;8.50;99.90
11532;DHT22;5822;51.000;5.874;2024-02-23T03:34:46;8.60;99.90
11532;DHT22;5822;51.000;5.874;2024-02-23T03:37:11;8.50;99.90
11532;DHT22;5822;51.000;5.874;2024-02-23T03:39:37;8.50;99.90
11532;DHT22;5822;51.000;5.874;2024-02-23T03:42:03;8.60;99.90
11532;DHT22;5822;51.000;5.874;2024-02-23T03:44:29;8.60;99.90
11532;DHT22;5822;51.000;5.874;2024-02-23T03:46:55;8.60;99.90
11532;DHT22;5822;51.000;5.874;2024-02-23T03:49:20;8.60;99.90
11532;DHT22;5822;51.000;5.874;2024-02-23T03:51:47;8.70;99.90
11532;DHT22;5822;51.000;5.874;2024-02-23T03:54:13;8.60;99.90
11532;DHT22;5822;51.000;5.874;2024-02-23T03:56:39;8.70;99.90
11532;DHT22;5822;51.000;5.874;2024-02-23T03:59:06;8.70;99.90
11532;DHT22;5822;51.000;5.874;2024-02-23T04:01:37;8.70;99.90
11532;DHT22;5822;51.000;5.874;2024-02-23T04:04:04;8.70;99.90
11532;DHT22;5822;51.000;5.874;2024-02-23T04:06:30;8.60;99.90
11532;DHT22;5822;51.000;5.874;2024-02-23T04:08:58;8.60;99.90
11532;DHT22;5822;51.000;5.874;2024-02-23T04:11:24;8.30;99.90
11532;DHT22;5822;51.000;5.874;2024-02-23T04:13:49;8.60;99.90
11532;DHT22;5822;51.000;5.874;2024-02-23T04:16:15;8.60;99.90
11532;DHT22;5822;51.000;5.874;2024-02-23T04:18:40;8.60;99.90
11532;DHT22;5822;51.000;5.874;2024-02-23T04:21:06;8.60;99.90
11532;DHT22;5822;51.000;5.874;2024-02-23T04:23:32;8.60;99.90
11532;DHT22;5822;51.000;5.874;2024-02-23T04:25:59;8.60;99.90
11532;DHT22;5822;51.000;5.874;2024-02-23T04:28:24;8.60;99.90
11532;DHT22;5822;51.000;5.874;2024-02-23T04:30:52;8.60;99.90
11532;DHT22;5822;51.000;5.874;2024-02-23T04:33:17;8.60;99.90
11532;DHT22;5822;51.000;5.874;2024-02-23T04:35:43;8.60;99.90
11532;DHT22;5822;51.000;5.874;2024-02-23T04:38:08;8.60;99.90
11532;DHT22;5822;51.000;5.874;2024-02-23T04:40:34;8.70;99.90
11532;DHT22;5822;51.000;5.874;2024-02-23T04:43:00;8.80;99.90
11532;DHT22;5822;51.000;5.874;2024-02-23T04:45:25;8.70;99.90
11532;DHT22;5822;51.000;5.874;2024-02-23T04:47:51;8.70;99.90
11532;DHT22;5822;51.000;5.874;2024-02-23T04:50:16;8.70;99.90
11532;DHT22;5822;51.000;5.874;2024-02-23T04:52:42;8.80;99.90
11532;DHT22;5822;51.000;5.874;2024-02-23T04:55:08;8.80;99.90
11532;DHT22;5822;51.000;5.874;2024-02-23T04:57:33;8.80;99.90
11532;DHT22;5822;51.000;5.874;2024-02-23T04:59:59;8.70;99.90
11532;DHT22;5822;51.000;5.874;2024-02-23T05:02:24;8.70;99.90
11532;DHT22;5822;51.000;5.874;2024-02-23T05:04:54;8.80;99.90
11532;DHT22;5822;51.000;5.874;2024-02-23T05:07:19;8.80;99.90
11532;DHT22;5822;51.000;5.874;2024-02-23T05:09:45;8.80;99.90
11532;DHT22;5822;51.000;5.874;2024-02-23T05:12:10;8.80;99.90
11532;DHT22;5822;51.000;5.874;2024-02-23T05:14:36;8.90;99.90
11532;DHT22;5822;51.000;5.874;2024-02-23T05:17:02;8.90;99.90
11532;DHT22;5822;51.000;5.874;2024-02-23T05:19:28;8.90;99.90
11532;DHT22;5822;51.000;5.874;2024-02-23T05:21:54;8.80;99.90
11532;DHT22;5822;51.000;5.874;2024-02-23T05:24:20;8.80;99.90
11532;DHT22;5822;51.000;5.874;2024-02-23T05:26:45;8.80;99.90
11532;DHT22;5822;51.000;5.874;2024-02-23T05:29:11;8.90;99.90
11532;DHT22;5822;51.000;5.874;2024-02-23T05:31:46;8.90;99.90
11532;DHT22;5822;51.000;5.874;2024-02-23T05:34:12;8.90;99.90
11532;DHT22;5822;51.000;5.874;2024-02-23T05:36:38;8.90;99.90
11532;DHT22;5822;51.000;5.874;2024-02-23T05:39:04;8.90;99.90
11532;DHT22;5822;51.000;5.874;2024-02-23T05:41:30;8.80;99.90
11532;DHT22;5822;51.000;5.874;2024-02-23T05:43:56;8.80;99.90
11532;DHT22;5822;51.000;5.874;2024-02-23T05:46:21;8.80;99.90
11532;DHT22;5822;51.000;5.874;2024-02-23T05:48:47;8.80;99.90
11532;DHT22;5822;51.000;5.874;2024-02-23T05:51:12;8.90;99.90
11532;DHT22;5822;51.000;5.874;2024-02-23T05:53:40;8.90;99.90
11532;DHT22;5822;51.000;5.874;2024-02-23T05:56:05;9.00;99.90
11532;DHT22;5822;51.000;5.874;2024-02-23T05:58:31;9.00;99.90
11532;DHT22;5822;51.000;5.874;2024-02-23T06:00:57;9.00;99.90
11532;DHT22;5822;51.000;5.874;2024-02-23T06:03:22;8.90;99.90
11532;DHT22;5822;51.000;5.874;2024-02-23T06:05:48;8.90;99.90
11532;DHT22;5822;51.000;5.874;2024-02-23T06:08:14;8.80;99.90
11532;DHT22;5822;51.000;5.874;2024-02-23T06:10:39;8.90;99.90
11532;DHT22;5822;51.000;5.874;2024-02-23T06:13:05;8.90;99.90
11532;DHT22;5822;51.000;5.874;2024-02-23T06:15:30;8.80;99.90
11532;DHT22;5822;51.000;5.874;2024-02-23T06:17:56;8.80;99.90
11532;DHT22;5822;51.000;5.874;2024-02-23T06:20:25;8.90;99.90
11532;DHT22;5822;51.000;5.874;2024-02-23T06:22:50;8.90;99.90
11532;DHT22;5822;51.000;5.874;2024-02-23T06:25:16;8.90;99.90
11532;DHT22;5822;51.000;5.874;2024-02-23T06:27:42;8.90;99.90
11532;DHT22;5822;51.000;5.874;2024-02-23T06:30:08;8.90;99.90
11532;DHT22;5822;51.000;5.874;2024-02-23T06:32:33;8.90;99.90
11532;DHT22;5822;51.000;5.874;2024-02-23T06:34:59;8.90;99.90
11532;DHT22;5822;51.000;5.874;2024-02-23T06:37:25;8.90;99.90
11532;DHT22;5822;51.000;5.874;2024-02-23T06:39:51;8.90;99.90
11532;DHT22;5822;51.000;5.874;2024-02-23T06:42:20;8.80;99.90
11532;DHT22;5822;51.000;5.874;2024-02-23T06:44:46;8.80;99.90
11532;DHT22;5822;51.000;5.874;2024-02-23T06:47:12;8.80;99.90
11532;DHT22;5822;51.000;5.874;2024-02-23T06:49:41;8.80;99.90
11532;DHT22;5822;51.000;5.874;2024-02-23T06:52:07;8.90;99.90
11532;DHT22;5822;51.000;5.874;2024-02-23T06:54:33;8.90;99.90
11532;DHT22;5822;51.000;5.874;2024-02-23T06:56:59;8.90;99.90
11532;DHT22;5822;51.000;5.874;2024-02-23T06:59:25;8.90;99.90
11532;DHT22;5822;51.000;5.874;2024-02-23T07:01:52;8.80;99.90
11532;DHT22;5822;51.000;5.874;2024-02-23T07:04:18;8.80;99.90
11532;DHT22;5822;51.000;5.874;2024-02-23T07:06:44;8.80;99.90
11532;DHT22;5822;51.000;5.874;2024-02-23T07:09:10;8.80;99.90
11532;DHT22;5822;51.000;5.874;2024-02-23T07:11:37;8.70;99.90
11532;DHT22;5822;51.000;5.874;2024-02-23T07:14:04;8.70;99.90
11532;DHT22;5822;51.000;5.874;2024-02-23T07:16:30;8.90;99.90
11532;DHT22;5822;51.000;5.874;2024-02-23T07:18:55;8.80;99.90
11532;DHT22;5822;51.000;5.874;2024-02-23T07:21:22;8.80;99.90
11532;DHT22;5822;51.000;5.874;2024-02-23T07:23:48;8.90;99.90
11532;DHT22;5822;51.000;5.874;2024-02-23T07:26:13;8.80;99.90
11532;DHT22;5822;51.000;5.874;2024-02-23T07:28:39;8.90;99.90
11532;DHT22;5822;51.000;5.874;2024-02-23T07:31:05;8.80;99.90
11532;DHT22;5822;51.000;5.874;2024-02-23T07:33:30;8.80;99.90
11532;DHT22;5822;51.000;5.874;2024-02-23T07:35:58;8.90;99.90
11532;DHT22;5822;51.000;5.874;2024-02-23T07:38:24;8.90;99.90
11532;DHT22;5822;51.000;5.874;2024-02-23T07:40:49;8.90;99.90
11532;DHT22;5822;51.000;5.874;2024-02-23T07:43:15;8.80;99.90
11532;DHT22;5822;51.000;5.874;2024-02-23T07:45:41;8.70;99.90
11532;DHT22;5822;51.000;5.874;2024-02-23T07:48:07;8.80;99.90
11532;DHT22;5822;51.000;5.874;2024-02-23T07:50:34;8.80;99.90
11532;DHT22;5822;51.000;5.874;2024-02-23T07:52:59;8.70;99.90
11532;DHT22;5822;51.000;5.874;2024-02-23T07:55:25;8.70;99.90
11532;DHT22;5822;51.000;5.874;2024-02-23T07:57:50;8.60;99.90
11532;DHT22;5822;51.000;5.874;2024-02-23T08:00:19;8.70;99.90
11532;DHT22;5822;51.000;5.874;2024-02-23T08:02:45;8.70;99.90
11532;DHT22;5822;51.000;5.874;2024-02-23T08:05:11;8.70;99.90
11532;DHT22;5822;51.000;5.874;2024-02-23T08:07:36;8.70;99.90
11532;DHT22;5822;51.000;5.874;2024-02-23T08:10:02;8.70;99.90
11532;DHT22;5822;51.000;5.874;2024-02-23T08:12:30;8.80;99.90
11532;DHT22;5822;51.000;5.874;2024-02-23T08:14:55;8.80;99.90
11532;DHT22;5822;51.000;5.874;2024-02-23T08:17:21;8.90;99.90
11532;DHT22;5822;51.000;5.874;2024-02-23T08:19:47;9.00;99.90
11532;DHT22;5822;51.000;5.874;2024-02-23T08:22:12;9.00;99.90
11532;DHT22;5822;51.000;5.874;2024-02-23T08:24:38;9.00;99.90
11532;DHT22;5822;51.000;5.874;2024-02-23T08:27:04;9.10;99.90
11532;DHT22;5822;51.000;5.874;2024-02-23T08:29:30;9.10;99.90
11532;DHT22;5822;51.000;5.874;2024-02-23T08:31:55;9.10;99.90
11532;DHT22;5822;51.000;5.874;2024-02-23T08:34:21;9.20;99.90
11532;DHT22;5822;51.000;5.874;2024-02-23T08:36:47;9.20;99.90
11532;DHT22;5822;51.000;5.874;2024-02-23T08:39:12;9.20;99.90
11532;DHT22;5822;51.000;5.874;2024-02-23T08:41:38;9.20;99.90
11532;DHT22;5822;51.000;5.874;2024-02-23T08:44:04;9.20;99.90
11532;DHT22;5822;51.000;5.874;2024-02-23T08:46:30;9.10;99.90
11532;DHT22;5822;51.000;5.874;2024-02-23T08:48:56;9.10;99.90
11532;DHT22;5822;51.000;5.874;2024-02-23T08:51:21;9.20;99.90
11532;DHT22;5822;51.000;5.874;2024-02-23T08:53:47;9.20;99.90
11532;DHT22;5822;51.000;5.874;2024-02-23T08:56:13;9.30;99.90
11532;DHT22;5822;51.000;5.874;2024-02-23T08:58:40;9.30;99.90
11532;DHT22;5822;51.000;5.874;2024-02-23T09:01:06;9.20;99.90
11532;DHT22;5822;51.000;5.874;2024-02-23T09:03:32;9.30;99.90
11532;DHT22;5822;51.000;5.874;2024-02-23T09:05:58;9.30;99.90
11532;DHT22;5822;51.000;5.874;2024-02-23T09:08:23;9.30;99.90
11532;DHT22;5822;51.000;5.874;2024-02-23T09:10:49;9.30;99.90
11532;DHT22;5822;51.000;5.874;2024-02-23T09:13:14;9.20;99.90
11532;DHT22;5822;51.000;5.874;2024-02-23T09:15:40;9.30;99.90
11532;DHT22;5822;51.000;5.874;2024-02-23T09:18:07;9.30;99.90
11532;DHT22;5822;51.000;5.874;2024-02-23T09:20:33;9.30;99.90
11532;DHT22;5822;51.000;5.874;2024-02-23T09:22:59;9.40;99.90
11532;DHT22;5822;51.000;5.874;2024-02-23T09:25:24;9.40;99.90
11532;DHT22;5822;51.000;5.874;2024-02-23T09:27:50;9.40;99.90
11532;DHT22;5822;51.000;5.874;2024-02-23T09:30:16;9.50;99.90
11532;DHT22;5822;51.000;5.874;2024-02-23T09:32:41;9.60;99.90
11532;DHT22;5822;51.000;5.874;2024-02-23T09:35:08;9.50;99.90
11532;DHT22;5822;51.000;5.874;2024-02-23T09:37:33;9.60;99.90
11532;DHT22;5822;51.000;5.874;2024-02-23T09:39:59;9.60;99.90
11532;DHT22;5822;51.000;5.874;2024-02-23T09:42:25;9.60;99.90
11532;DHT22;5822;51.000;5.874;2024-02-23T09:44:58;9.70;99.90
11532;DHT22;5822;51.000;5.874;2024-02-23T09:47:28;9.70;99.90
11532;DHT22;5822;51.000;5.874;2024-02-23T09:49:55;9.80;99.90
11532;DHT22;5822;51.000;5.874;2024-02-23T09:52:21;9.80;99.90
11532;DHT22;5822;51.000;5.874;2024-02-23T09:54:48;9.60;99.90
11532;DHT22;5822;51.000;5.874;2024-02-23T09:57:14;10.00;99.90
11532;DHT22;5822;51.000;5.874;2024-02-23T09:59:41;9.70;99.90
11532;DHT22;5822;51.000;5.874;2024-02-23T10:02:14;9.80;99.90
11532;DHT22;5822;51.000;5.874;2024-02-23T10:04:42;9.90;99.90
11532;DHT22;5822;51.000;5.874;2024-02-23T10:07:09;9.70;99.90
11532;DHT22;5822;51.000;5.874;2024-02-23T10:09:35;9.90;99.90
11532;DHT22;5822;51.000;5.874;2024-02-23T10:12:02;9.90;99.90
11532;DHT22;5822;51.000;5.874;2024-02-23T10:14:28;9.90;99.90
11532;DHT22;5822;51.000;5.874;2024-02-23T10:16:54;9.90;99.90
11532;DHT22;5822;51.000;5.874;2024-02-23T10:19:21;10.00;99.90
11532;DHT22;5822;51.000;5.874;2024-02-23T10:21:46;10.00;99.90
11532;DHT22;5822;51.000;5.874;2024-02-23T10:24:13;10.00;99.90
11532;DHT22;5822;51.000;5.874;2024-02-23T10:26:41;10.20;99.90
11532;DHT22;5822;51.000;5.874;2024-02-23T10:29:07;10.20;99.90
11532;DHT22;5822;51.000;5.874;2024-02-23T10:31:35;10.10;99.90
11532;DHT22;5822;51.000;5.874;2024-02-23T10:34:09;10.40;99.90
11532;DHT22;5822;51.000;5.874;2024-02-23T10:36:40;10.10;99.90
11532;DHT22;5822;51.000;5.874;2024-02-23T10:39:08;10.10;99.90
11532;DHT22;5822;51.000;5.874;2024-02-23T10:41:39;10.10;99.90
11532;DHT22;5822;51.000;5.874;2024-02-23T10:44:09;10.10;99.90
11532;DHT22;5822;51.000;5.874;2024-02-23T10:46:36;10.10;99.90
11532;DHT22;5822;51.000;5.874;2024-02-23T10:49:02;10.20;99.90
11532;DHT22;5822;51.000;5.874;2024-02-23T10:51:28;10.20;99.90
11532;DHT22;5822;51.000;5.874;2024-02-23T10:53:55;10.30;99.90
11532;DHT22;5822;51.000;5.874;2024-02-23T10:56:21;10.40;99.90
11532;DHT22;5822;51.000;5.874;2024-02-23T10:58:48;10.40;99.90
11532;DHT22;5822;51.000;5.874;2024-02-23T11:01:14;10.40;99.90
11532;DHT22;5822;51.000;5.874;2024-02-23T11:03:43;10.40;99.90
11532;DHT22;5822;51.000;5.874;2024-02-23T11:06:12;10.40;99.90
11532;DHT22;5822;51.000;5.874;2024-02-23T11:08:37;10.40;99.90
11532;DHT22;5822;51.000;5.874;2024-02-23T11:11:10;10.40;99.90
11532;DHT22;5822;51.000;5.874;2024-02-23T11:13:37;10.40;99.90
11532;DHT22;5822;51.000;5.874;2024-02-23T11:16:07;10.50;99.90
11532;DHT22;5822;51.000;5.874;2024-02-23T11:18:35;10.50;99.90
11532;DHT22;5822;51.000;5.874;2024-02-23T11:21:02;10.40;99.90
11532;DHT22;5822;51.000;5.874;2024-02-23T11:23:47;10.50;99.90
11532;DHT22;5822;51.000;5.874;2024-02-23T11:26:17;10.50;99.90
11532;DHT22;5822;51.000;5.874;2024-02-23T11:28:46;10.50;99.90
11532;DHT22;5822;51.000;5.874;2024-02-23T11:31:22;10.30;99.90
11532;DHT22;5822;51.000;5.874;2024-02-23T11:33:52;10.50;99.90
11532;DHT22;5822;51.000;5.874;2024-02-23T11:36:38;10.40;99.90
11532;DHT22;5822;51.000;5.874;2024-02-23T11:39:04;10.60;99.90
11532;DHT22;5822;51.000;5.874;2024-02-23T11:41:31;10.40;99.90
11532;DHT22;5822;51.000;5.874;2024-02-23T11:43:57;10.50;99.90
11532;DHT22;5822;51.000;5.874;2024-02-23T11:46:25;10.50;99.90
11532;DHT22;5822;51.000;5.874;2024-02-23T11:48:51;10.40;99.90
11532;DHT22;5822;51.000;5.874;2024-02-23T11:51:21;10.50;99.90
11532;DHT22;5822;51.000;5.874;2024-02-23T11:53:47;10.40;99.90
11532;DHT22;5822;51.000;5.874;2024-02-23T11:56:14;10.40;99.90
11532;DHT22;5822;51.000;5.874;2024-02-23T11:58:40;10.50;99.90
11532;DHT22;5822;51.000;5.874;2024-02-23T12:01:06;10.50;99.90
11532;DHT22;5822;51.000;5.874;2024-02-23T12:03:32;10.50;99.90
11532;DHT22;5822;51.000;5.874;2024-02-23T12:06:02;10.60;99.90
11532;DHT22;5822;51.000;5.874;2024-02-23T12:08:30;10.70;99.90
11532;DHT22;5822;51.000;5.874;2024-02-23T12:11:03;10.70;99.90
11532;DHT22;5822;51.000;5.874;2024-02-23T12:13:29;10.80;99.90
11532;DHT22;5822;51.000;5.874;2024-02-23T12:15:55;11.00;99.90
11532;DHT22;5822;51.000;5.874;2024-02-23T12:18:24;10.90;99.90
11532;DHT22;5822;51.000;5.874;2024-02-23T12:20:59;10.80;99.90
11532;DHT22;5822;51.000;5.874;2024-02-23T12:23:26;10.80;99.90
11532;DHT22;5822;51.000;5.874;2024-02-23T12:25:53;10.80;99.90
11532;DHT22;5822;51.000;5.874;2024-02-23T12:28:20;10.90;99.90
11532;DHT22;5822;51.000;5.874;2024-02-23T12:30:45;10.90;99.90
11532;DHT22;5822;51.000;5.874;2024-02-23T12:33:15;10.90;99.90
11532;DHT22;5822;51.000;5.874;2024-02-23T12:35:41;11.00;99.90
11532;DHT22;5822;51.000;5.874;2024-02-23T12:38:06;11.00;99.90
11532;DHT22;5822;51.000;5.874;2024-02-23T12:40:32;11.10;99.90
11532;DHT22;5822;51.000;5.874;2024-02-23T12:42:58;11.00;99.90
11532;DHT22;5822;51.000;5.874;2024-02-23T12:45:23;11.00;99.90
11532;DHT22;5822;51.000;5.874;2024-02-23T12:47:49;11.10;99.90
11532;DHT22;5822;51.000;5.874;2024-02-23T12:50:15;10.90;99.90
11532;DHT22;5822;51.000;5.874;2024-02-23T12:52:40;11.10;99.90
11532;DHT22;5822;51.000;5.874;2024-02-23T12:55:06;11.10;99.90
11532;DHT22;5822;51.000;5.874;2024-02-23T12:57:33;11.20;99.90
11532;DHT22;5822;51.000;5.874;2024-02-23T12:59:59;11.10;99.90
11532;DHT22;5822;51.000;5.874;2024-02-23T13:02:24;11.10;99.90
11532;DHT22;5822;51.000;5.874;2024-02-23T13:04:50;11.10;99.90
11532;DHT22;5822;51.000;5.874;2024-02-23T13:07:16;11.20;99.90
11532;DHT22;5822;51.000;5.874;2024-02-23T13:09:44;11.30;99.90
11532;DHT22;5822;51.000;5.874;2024-02-23T13:12:10;11.20;99.90
11532;DHT22;5822;51.000;5.874;2024-02-23T13:14:36;11.30;99.90
11532;DHT22;5822;51.000;5.874;2024-02-23T13:17:02;11.20;99.90
11532;DHT22;5822;51.000;5.874;2024-02-23T13:19:29;11.20;99.90
11532;DHT22;5822;51.000;5.874;2024-02-23T13:21:54;11.20;99.90
11532;DHT22;5822;51.000;5.874;2024-02-23T13:24:20;11.20;99.90
11532;DHT22;5822;51.000;5.874;2024-02-23T13:26:46;11.30;99.90
11532;DHT22;5822;51.000;5.874;2024-02-23T13:29:12;11.40;99.90
11532;DHT22;5822;51.000;5.874;2024-02-23T13:31:37;11.40;99.90
11532;DHT22;5822;51.000;5.874;2024-02-23T13:34:04;11.30;99.90
11532;DHT22;5822;51.000;5.874;2024-02-23T13:36:30;11.30;99.90
11532;DHT22;5822;51.000;5.874;2024-02-23T13:38:56;11.30;99.90
11532;DHT22;5822;51.000;5.874;2024-02-23T13:41:22;11.30;99.90
11532;DHT22;5822;51.000;5.874;2024-02-23T13:43:47;11.40;99.90
11532;DHT22;5822;51.000;5.874;2024-02-23T13:46:13;11.30;99.90
11532;DHT22;5822;51.000;5.874;2024-02-23T13:48:39;11.20;99.90
11532;DHT22;5822;51.000;5.874;2024-02-23T13:51:04;11.20;99.90
11532;DHT22;5822;51.000;5.874;2024-02-23T13:53:31;11.10;99.90
11532;DHT22;5822;51.000;5.874;2024-02-23T13:55:58;11.20;99.90
11532;DHT22;5822;51.000;5.874;2024-02-23T13:58:24;11.20;99.90
11532;DHT22;5822;51.000;5.874;2024-02-23T14:00:49;11.20;99.90
11532;DHT22;5822;51.000;5.874;2024-02-23T14:03:18;11.10;99.90
11532;DHT22;5822;51.000;5.874;2024-02-23T14:05:44;11.20;99.90
11532;DHT22;5822;51.000;5.874;2024-02-23T14:08:11;11.30;99.90
11532;DHT22;5822;51.000;5.874;2024-02-23T14:10:37;11.30;99.90
11532;DHT22;5822;51.000;5.874;2024-02-23T14:13:03;11.20;99.90
11532;DHT22;5822;51.000;5.874;2024-02-23T14:15:29;11.30;99.90
11532;DHT22;5822;51.000;5.874;2024-02-23T14:17:54;11.30;99.90
11532;DHT22;5822;51.000;5.874;2024-02-23T14:20:20;11.30;99.90
11532;DHT22;5822;51.000;5.874;2024-02-23T14:22:45;11.30;99.90
11532;DHT22;5822;51.000;5.874;2024-02-23T14:25:11;11.30;99.90
11532;DHT22;5822;51.000;5.874;2024-02-23T14:27:38;11.30;99.90
11532;DHT22;5822;51.000;5.874;2024-02-23T14:30:04;11.30;99.90
11532;DHT22;5822;51.000;5.874;2024-02-23T14:32:29;11.40;99.90
11532;DHT22;5822;51.000;5.874;2024-02-23T14:34:56;11.30;99.90
11532;DHT22;5822;51.000;5.874;2024-02-23T14:37:22;11.30;99.90
11532;DHT22;5822;51.000;5.874;2024-02-23T14:39:48;11.30;99.90
11532;DHT22;5822;51.000;5.874;2024-02-23T14:42:14;11.30;99.90
11532;DHT22;5822;51.000;5.874;2024-02-23T14:44:40;11.30;99.90
11532;DHT22;5822;51.000;5.874;2024-02-23T14:47:06;11.30;99.90
11532;DHT22;5822;51.000;5.874;2024-02-23T14:49:32;11.30;99.90
11532;DHT22;5822;51.000;5.874;2024-02-23T14:51:58;11.30;99.90
11532;DHT22;5822;51.000;5.874;2024-02-23T14:54:23;11.30;99.90
11532;DHT22;5822;51.000;5.874;2024-02-23T14:56:49;11.30;99.90
11532;DHT22;5822;51.000;5.874;2024-02-23T14:59:15;11.30;99.90
11532;DHT22;5822;51.000;5.874;2024-02-23T15:01:40;11.30;99.90
11532;DHT22;5822;51.000;5.874;2024-02-23T15:04:07;11.50;99.90
11532;DHT22;5822;51.000;5.874;2024-02-23T15:06:33;11.40;99.90
11532;DHT22;5822;51.000;5.874;2024-02-23T15:08:58;11.50;99.90
11532;DHT22;5822;51.000;5.874;2024-02-23T15:11:24;11.50;99.90
11532;DHT22;5822;51.000;5.874;2024-02-23T15:13:50;11.50;99.90
11532;DHT22;5822;51.000;5.874;2024-02-23T15:16:17;11.50;99.90
11532;DHT22;5822;51.000;5.874;2024-02-23T15:18:42;11.40;99.90
11532;DHT22;5822;51.000;5.874;2024-02-23T15:21:08;11.40;99.90
11532;DHT22;5822;51.000;5.874;2024-02-23T15:23:34;11.50;99.90
11532;DHT22;5822;51.000;5.874;2024-02-23T15:25:59;11.50;99.90
11532;DHT22;5822;51.000;5.874;2024-02-23T15:28:25;11.40;99.90
11532;DHT22;5822;51.000;5.874;2024-02-23T15:30:51;11.40;99.90
11532;DHT22;5822;51.000;5.874;2024-02-23T15:33:21;11.40;99.90
11532;DHT22;5822;51.000;5.874;2024-02-23T15:35:47;11.30;99.90
11532;DHT22;5822;51.000;5.874;2024-02-23T15:38:12;11.30;99.90
11532;DHT22;5822;51.000;5.874;2024-02-23T15:40:38;11.30;99.90
11532;DHT22;5822;51.000;5.874;2024-02-23T15:43:04;11.20;99.90
11532;DHT22;5822;51.000;5.874;2024-02-23T15:45:29;11.30;99.90
11532;DHT22;5822;51.000;5.874;2024-02-23T15:47:55;11.20;99.90
11532;DHT22;5822;51.000;5.874;2024-02-23T15:50:21;11.30;99.90